createdAt,value
2023-08-14T00:00:01.394Z,43.44
2023-08-14T00:00:31.463Z,43.44
2023-08-14T00:01:01.579Z,43.44
2023-08-14T00:01:31.736Z,43.42
2023-08-14T00:02:01.742Z,43.45
2023-08-14T00:02:31.816Z,43.43
2023-08-14T00:03:02.022Z,43.48
2023-08-14T00:03:32.053Z,43.46
2023-08-14T00:04:02.175Z,43.42
2023-08-14T00:04:32.185Z,43.41
2023-08-14T00:05:02.299Z,43.45
2023-08-14T00:05:32.408Z,43.44
2023-08-14T00:06:02.545Z,43.50
2023-08-14T00:06:32.530Z,43.45
2023-08-14T00:07:02.640Z,43.45
2023-08-14T00:07:32.632Z,43.47
2023-08-14T00:08:02.772Z,43.43
2023-08-14T00:08:32.863Z,43.40
2023-08-14T00:09:02.975Z,43.48
2023-08-14T00:09:33.092Z,43.49
2023-08-14T00:10:03.216Z,43.45
2023-08-14T00:10:33.324Z,43.45
2023-08-14T00:11:03.320Z,43.46
2023-08-14T00:11:33.434Z,43.48
2023-08-14T00:12:03.544Z,43.43
2023-08-14T00:12:33.657Z,43.45
2023-08-14T00:13:03.779Z,43.49
2023-08-14T00:13:33.890Z,43.45
2023-08-14T00:14:04.004Z,43.45
2023-08-14T00:14:34.123Z,43.46
2023-08-14T00:15:04.140Z,43.46
2023-08-14T00:15:34.198Z,43.46
2023-08-14T00:16:04.270Z,43.45
2023-08-14T00:16:34.252Z,43.49
2023-08-14T00:17:04.354Z,43.46
2023-08-14T00:17:34.506Z,43.49
2023-08-14T00:18:04.539Z,43.47
2023-08-14T00:18:34.553Z,43.46
2023-08-14T00:19:04.606Z,43.47
2023-08-14T00:19:34.626Z,43.49
2023-08-14T00:20:04.621Z,43.49
2023-08-14T00:20:34.612Z,43.48
2023-08-14T00:21:04.633Z,43.45
2023-08-14T00:21:34.757Z,43.44
2023-08-14T00:22:04.877Z,43.50
2023-08-14T00:22:34.974Z,43.48
2023-08-14T00:23:04.967Z,43.45
2023-08-14T00:23:35.099Z,43.46
2023-08-14T00:24:05.196Z,43.44
2023-08-14T00:24:35.326Z,43.47
2023-08-14T00:25:05.316Z,43.49
2023-08-14T00:25:35.430Z,43.47
2023-08-14T00:26:05.540Z,43.52
2023-08-14T00:26:35.672Z,43.48
2023-08-14T00:27:05.772Z,43.46
2023-08-14T00:27:35.892Z,43.43
2023-08-14T00:28:06.002Z,43.46
2023-08-14T00:28:36.145Z,43.43
2023-08-14T00:29:06.239Z,43.49
2023-08-14T00:29:36.356Z,43.46
2023-08-14T00:30:06.345Z,43.46
2023-08-14T00:30:36.454Z,43.47
2023-08-14T00:31:06.600Z,43.49
2023-08-14T00:31:36.652Z,43.44
2023-08-14T00:32:06.642Z,43.46
2023-08-14T00:32:36.789Z,43.48
2023-08-14T00:33:06.842Z,43.45
2023-08-14T00:33:36.887Z,43.44
2023-08-14T00:34:06.880Z,43.46
2023-08-14T00:34:37.004Z,43.50
2023-08-14T00:35:07.110Z,43.47
2023-08-14T00:35:37.224Z,43.44
2023-08-14T00:36:07.389Z,43.48
2023-08-14T00:36:37.272Z,43.43
2023-08-14T00:37:07.381Z,43.43
2023-08-14T00:37:37.502Z,43.49
2023-08-14T00:38:07.623Z,43.47
2023-08-14T00:38:37.651Z,43.47
2023-08-14T00:39:37.681Z,43.42
2023-08-14T00:40:07.798Z,43.46
2023-08-14T00:40:37.916Z,43.49
2023-08-14T00:41:07.915Z,43.44
2023-08-14T00:41:38.031Z,43.44
2023-08-14T00:42:08.144Z,43.44
2023-08-14T00:42:38.301Z,43.49
2023-08-14T00:43:08.286Z,43.44
2023-08-14T00:43:38.265Z,43.43
2023-08-14T00:44:38.349Z,43.47
2023-08-14T00:45:08.487Z,43.43
2023-08-14T00:45:46.478Z,43.46
2023-08-14T00:46:08.639Z,43.50
2023-08-14T00:46:38.669Z,43.46
2023-08-14T00:47:08.661Z,43.44
2023-08-14T00:47:38.923Z,43.44
2023-08-14T00:48:08.907Z,43.50
2023-08-14T00:48:38.886Z,43.43
2023-08-14T00:49:09.013Z,43.43
2023-08-14T00:49:39.123Z,43.38
2023-08-14T00:50:09.228Z,43.43
2023-08-14T00:50:39.337Z,43.46
2023-08-14T00:51:09.329Z,43.49
2023-08-14T00:51:39.440Z,43.49
2023-08-14T00:52:09.578Z,43.47
2023-08-14T00:53:17.240Z,43.50
2023-08-14T00:53:47.214Z,43.49
2023-08-14T00:54:17.262Z,43.48
2023-08-14T00:54:47.382Z,43.53
2023-08-14T00:55:17.451Z,43.54
2023-08-14T00:55:47.533Z,43.51
2023-08-14T00:56:17.602Z,43.52
2023-08-14T00:56:47.703Z,43.49
2023-08-14T00:57:17.752Z,43.50
2023-08-14T00:57:47.823Z,43.49
2023-08-14T00:58:17.902Z,43.47
2023-08-14T00:58:47.968Z,43.47
2023-08-14T00:59:18.033Z,43.53
2023-08-14T00:59:48.112Z,43.50
2023-08-14T01:00:18.190Z,43.47
2023-08-14T01:00:48.302Z,43.47
2023-08-14T01:01:18.315Z,43.47
2023-08-14T01:01:48.433Z,43.51
2023-08-14T01:02:18.797Z,43.47
2023-08-14T01:02:48.619Z,43.47
2023-08-14T01:03:18.671Z,43.47
2023-08-14T01:03:48.653Z,43.50
2023-08-14T01:04:18.760Z,43.45
2023-08-14T01:04:48.872Z,43.50
2023-08-14T01:05:18.984Z,43.45
2023-08-14T01:05:49.104Z,43.51
2023-08-14T01:06:19.216Z,43.48
2023-08-14T01:06:49.207Z,43.48
2023-08-14T01:07:19.312Z,43.47
2023-08-14T01:07:49.442Z,43.47
2023-08-14T01:08:19.541Z,43.50
2023-08-14T01:08:49.763Z,43.47
2023-08-14T01:09:19.736Z,43.44
2023-08-14T01:09:49.846Z,43.47
2023-08-14T01:10:19.977Z,43.48
2023-08-14T01:10:50.071Z,43.47
2023-08-14T01:11:20.189Z,43.48
2023-08-14T01:11:50.308Z,43.46
2023-08-14T01:12:20.416Z,43.48
2023-08-14T01:12:50.531Z,43.47
2023-08-14T01:13:20.642Z,43.41
2023-08-14T01:13:50.762Z,43.39
2023-08-14T01:14:20.873Z,43.47
2023-08-14T01:14:50.981Z,43.50
2023-08-14T01:15:21.113Z,43.50
2023-08-14T01:15:51.096Z,43.41
2023-08-14T01:16:21.246Z,43.50
2023-08-14T01:16:51.279Z,43.49
2023-08-14T01:17:21.293Z,43.44
2023-08-14T01:17:51.427Z,43.47
2023-08-14T01:18:21.420Z,43.47
2023-08-14T01:18:51.527Z,43.47
2023-08-14T01:19:21.643Z,43.43
2023-08-14T01:19:51.747Z,43.50
2023-08-14T01:20:21.882Z,43.45
2023-08-14T01:20:51.866Z,43.44
2023-08-14T01:21:21.980Z,43.43
2023-08-14T01:21:52.126Z,43.47
2023-08-14T01:22:22.193Z,43.45
2023-08-14T01:22:52.106Z,43.43
2023-08-14T01:23:22.266Z,43.43
2023-08-14T01:23:52.261Z,43.47
2023-08-14T01:24:22.351Z,43.50
2023-08-14T01:24:52.469Z,43.47
2023-08-14T01:25:22.582Z,43.44
2023-08-14T01:25:52.702Z,43.42
2023-08-14T01:26:22.800Z,43.39
2023-08-14T01:26:52.936Z,43.46
2023-08-14T01:27:22.913Z,43.48
2023-08-14T01:27:53.032Z,43.44
2023-08-14T01:28:23.141Z,43.51
2023-08-14T01:28:53.244Z,43.45
2023-08-14T01:29:23.370Z,43.44
2023-08-14T01:29:53.361Z,43.48
2023-08-14T01:30:23.582Z,43.41
2023-08-14T01:30:53.552Z,43.39
2023-08-14T01:31:23.574Z,43.45
2023-08-14T01:31:53.600Z,43.41
2023-08-14T01:32:23.593Z,43.45
2023-08-14T01:32:53.898Z,43.44
2023-08-14T01:33:23.803Z,43.45
2023-08-14T01:33:53.862Z,43.44
2023-08-14T01:34:23.839Z,43.45
2023-08-14T01:34:53.915Z,43.51
2023-08-14T01:35:23.880Z,43.48
2023-08-14T01:35:53.995Z,43.44
2023-08-14T01:36:24.101Z,43.45
2023-08-14T01:36:54.214Z,43.42
2023-08-14T01:37:24.676Z,43.47
2023-08-14T01:37:54.422Z,43.42
2023-08-14T01:38:24.537Z,43.44
2023-08-14T01:38:54.678Z,43.42
2023-08-14T01:39:24.637Z,43.41
2023-08-14T01:39:54.754Z,43.42
2023-08-14T01:40:24.902Z,43.41
2023-08-14T01:40:54.957Z,43.44
2023-08-14T01:41:24.957Z,43.41
2023-08-14T01:41:55.063Z,43.48
2023-08-14T01:42:25.079Z,43.42
2023-08-14T01:42:55.194Z,43.42
2023-08-14T01:43:25.320Z,43.47
2023-08-14T01:43:55.425Z,43.41
2023-08-14T01:44:25.571Z,43.44
2023-08-14T01:44:55.577Z,43.41
2023-08-14T01:45:25.715Z,43.45
2023-08-14T01:45:55.742Z,43.44
2023-08-14T01:46:25.760Z,43.42
2023-08-14T01:46:55.750Z,43.44
2023-08-14T01:47:25.902Z,43.38
2023-08-14T01:47:55.947Z,43.37
2023-08-14T01:48:25.916Z,43.41
2023-08-14T01:48:56.027Z,43.43
2023-08-14T01:49:26.150Z,43.38
2023-08-14T01:49:56.250Z,43.41
2023-08-14T01:50:26.370Z,43.39
2023-08-14T01:50:56.502Z,43.39
2023-08-14T01:51:26.603Z,43.39
2023-08-14T01:51:56.702Z,43.45
2023-08-14T01:52:26.811Z,43.41
2023-08-14T01:52:56.929Z,43.37
2023-08-14T01:53:26.996Z,43.38
2023-08-14T01:53:57.094Z,43.39
2023-08-14T01:54:27.164Z,43.39
2023-08-14T01:54:57.151Z,43.37
2023-08-14T01:55:27.246Z,43.38
2023-08-14T01:55:57.300Z,43.39
2023-08-14T01:56:27.375Z,43.41
2023-08-14T01:56:57.448Z,43.39
2023-08-14T01:57:27.544Z,43.39
2023-08-14T01:57:57.628Z,43.41
2023-08-14T01:58:27.707Z,43.37
2023-08-14T01:58:57.785Z,43.37
2023-08-14T01:59:27.863Z,43.41
2023-08-14T01:59:57.934Z,43.36
2023-08-14T02:00:28.012Z,43.37
2023-08-14T02:00:58.081Z,43.35
2023-08-14T02:01:28.268Z,43.37
2023-08-14T02:01:58.215Z,43.35
2023-08-14T02:02:28.392Z,43.37
2023-08-14T02:02:58.390Z,43.35
2023-08-14T02:03:28.430Z,43.41
2023-08-14T02:03:58.453Z,43.32
2023-08-14T02:04:28.427Z,43.37
2023-08-14T02:04:58.539Z,43.34
2023-08-14T02:05:28.651Z,43.35
2023-08-14T02:05:58.671Z,43.37
2023-08-14T02:06:28.806Z,43.37
2023-08-14T02:06:58.799Z,43.37
2023-08-14T02:07:28.913Z,43.37
2023-08-14T02:07:59.048Z,43.40
2023-08-14T02:08:29.138Z,43.35
2023-08-14T02:08:59.255Z,43.38
2023-08-14T02:09:29.392Z,43.33
2023-08-14T02:09:59.369Z,43.38
2023-08-14T02:10:29.480Z,43.38
2023-08-14T02:10:59.488Z,43.35
2023-08-14T02:11:29.497Z,43.35
2023-08-14T02:11:59.482Z,43.34
2023-08-14T02:12:29.599Z,43.31
2023-08-14T02:12:59.709Z,43.35
2023-08-14T02:13:29.832Z,43.37
2023-08-14T02:13:59.945Z,43.38
2023-08-14T02:14:30.064Z,43.35
2023-08-14T02:15:00.175Z,43.38
2023-08-14T02:15:30.280Z,43.38
2023-08-14T02:16:00.468Z,43.35
2023-08-14T02:16:30.464Z,43.38
2023-08-14T02:17:00.447Z,43.39
2023-08-14T02:17:30.577Z,43.38
2023-08-14T02:18:00.617Z,43.37
2023-08-14T02:18:30.628Z,43.37
2023-08-14T02:19:00.740Z,43.38
2023-08-14T02:19:30.866Z,43.39
2023-08-14T02:20:00.981Z,43.38
2023-08-14T02:20:31.093Z,43.39
2023-08-14T02:21:01.098Z,43.39
2023-08-14T02:21:31.195Z,43.41
2023-08-14T02:22:01.313Z,43.37
2023-08-14T02:22:31.428Z,43.39
2023-08-14T02:23:01.551Z,43.38
2023-08-14T02:23:31.539Z,43.41
2023-08-14T02:24:01.648Z,43.44
2023-08-14T02:24:31.755Z,43.41
2023-08-14T02:25:01.996Z,43.39
2023-08-14T02:25:31.960Z,43.38
2023-08-14T02:26:32.063Z,43.41
2023-08-14T02:27:02.167Z,43.39
2023-08-14T02:27:32.271Z,43.38
2023-08-14T02:28:02.383Z,43.39
2023-08-14T02:28:32.538Z,43.39
2023-08-14T02:29:02.521Z,43.41
2023-08-14T02:29:32.636Z,43.45
2023-08-14T02:30:02.753Z,43.48
2023-08-14T02:30:32.883Z,43.42
2023-08-14T02:31:02.898Z,43.41
2023-08-14T02:32:02.970Z,43.44
2023-08-14T02:32:33.115Z,43.41
2023-08-14T02:33:03.153Z,43.37
2023-08-14T02:33:33.146Z,43.39
2023-08-14T02:34:03.244Z,43.39
2023-08-14T02:34:33.372Z,43.41
2023-08-14T02:35:03.358Z,43.34
2023-08-14T02:35:33.476Z,43.37
2023-08-14T02:36:03.590Z,43.39
2023-08-14T02:36:33.693Z,43.37
2023-08-14T02:37:03.804Z,43.41
2023-08-14T02:37:33.935Z,43.43
2023-08-14T02:38:04.034Z,43.39
2023-08-14T02:38:34.147Z,43.42
2023-08-14T02:39:04.260Z,43.36
2023-08-14T02:39:34.384Z,43.39
2023-08-14T02:40:04.482Z,43.42
2023-08-14T02:40:34.446Z,43.37
2023-08-14T02:41:04.559Z,43.46
2023-08-14T02:41:34.674Z,43.42
2023-08-14T02:42:04.782Z,43.40
2023-08-14T02:42:34.904Z,43.43
2023-08-14T02:43:05.019Z,43.43
2023-08-14T02:43:35.172Z,43.46
2023-08-14T02:44:05.213Z,43.46
2023-08-14T02:44:35.212Z,43.42
2023-08-14T02:45:05.201Z,43.45
2023-08-14T02:45:35.382Z,43.43
2023-08-14T02:46:05.471Z,43.39
2023-08-14T02:46:35.446Z,43.40
2023-08-14T02:47:05.563Z,43.36
2023-08-14T02:47:35.743Z,43.39
2023-08-14T02:48:05.802Z,43.42
2023-08-14T02:48:35.843Z,43.45
2023-08-14T02:49:05.821Z,43.38
2023-08-14T02:49:35.932Z,43.41
2023-08-14T02:50:06.039Z,43.44
2023-08-14T02:50:36.040Z,43.40
2023-08-14T02:51:06.046Z,43.36
2023-08-14T02:51:36.157Z,43.39
2023-08-14T02:52:06.273Z,43.42
2023-08-14T02:52:36.389Z,43.40
2023-08-14T02:53:06.465Z,43.42
2023-08-14T02:53:36.574Z,43.37
2023-08-14T02:54:06.642Z,43.37
2023-08-14T02:54:36.718Z,43.38
2023-08-14T02:55:06.789Z,43.40
2023-08-14T02:55:37.025Z,43.43
2023-08-14T02:56:06.953Z,43.36
2023-08-14T02:57:07.074Z,43.40
2023-08-14T02:57:37.144Z,43.43
2023-08-14T02:58:07.222Z,43.41
2023-08-14T02:58:37.299Z,43.43
2023-08-14T02:59:07.373Z,43.36
2023-08-14T02:59:37.450Z,43.38
2023-08-14T03:00:07.527Z,43.36
2023-08-14T03:00:37.603Z,43.38
2023-08-14T03:01:07.689Z,43.42
2023-08-14T03:01:37.752Z,43.40
2023-08-14T03:02:07.904Z,43.40
2023-08-14T03:02:38.032Z,43.39
2023-08-14T03:03:08.064Z,43.36
2023-08-14T03:03:38.128Z,43.34
2023-08-14T03:04:08.148Z,43.40
2023-08-14T03:04:38.257Z,43.40
2023-08-14T03:05:08.378Z,43.37
2023-08-14T03:05:38.489Z,43.38
2023-08-14T03:06:08.603Z,43.37
2023-08-14T03:06:38.708Z,43.39
2023-08-14T03:07:08.822Z,43.38
2023-08-14T03:07:38.957Z,43.39
2023-08-14T03:08:08.945Z,43.37
2023-08-14T03:08:39.053Z,43.39
2023-08-14T03:09:09.182Z,43.43
2023-08-14T03:09:39.204Z,43.40
2023-08-14T03:10:09.318Z,43.38
2023-08-14T03:10:39.427Z,43.39
2023-08-14T03:11:09.644Z,43.36
2023-08-14T03:11:39.606Z,43.38
2023-08-14T03:12:09.726Z,43.36
2023-08-14T03:12:39.849Z,43.37
2023-08-14T03:13:09.833Z,43.34
2023-08-14T03:13:39.948Z,43.37
2023-08-14T03:14:10.057Z,43.32
2023-08-14T03:14:40.183Z,43.36
2023-08-14T03:15:10.286Z,43.34
2023-08-14T03:15:40.406Z,43.37
2023-08-14T03:16:10.525Z,43.37
2023-08-14T03:16:40.706Z,43.37
2023-08-14T03:17:10.597Z,43.39
2023-08-14T03:17:40.734Z,43.36
2023-08-14T03:18:10.705Z,43.43
2023-08-14T03:18:40.821Z,43.42
2023-08-14T03:19:10.931Z,43.40
2023-08-14T03:19:41.047Z,43.35
2023-08-14T03:20:11.168Z,43.39
2023-08-14T03:20:41.084Z,43.31
2023-08-14T03:21:11.201Z,43.55
2023-08-14T03:21:41.315Z,43.53
2023-08-14T03:22:11.430Z,43.48
2023-08-14T03:22:41.548Z,43.49
2023-08-14T03:23:11.658Z,43.50
2023-08-14T03:23:41.768Z,43.49
2023-08-14T03:24:11.890Z,43.47
2023-08-14T03:24:41.993Z,43.48
2023-08-14T03:25:12.115Z,43.50
2023-08-14T03:25:42.259Z,43.50
2023-08-14T03:26:12.353Z,43.47
2023-08-14T03:26:42.321Z,43.48
2023-08-14T03:27:42.412Z,43.51
2023-08-14T03:28:12.402Z,43.51
2023-08-14T03:28:42.524Z,43.50
2023-08-14T03:29:12.514Z,43.49
2023-08-14T03:29:42.628Z,43.47
2023-08-14T03:30:12.751Z,43.47
2023-08-14T03:30:42.887Z,43.48
2023-08-14T03:31:12.887Z,43.48
2023-08-14T03:31:42.963Z,43.41
2023-08-14T03:32:12.991Z,43.40
2023-08-14T03:32:43.150Z,43.43
2023-08-14T03:33:13.126Z,43.46
2023-08-14T03:33:43.177Z,43.44
2023-08-14T03:34:13.307Z,43.38
2023-08-14T03:34:43.361Z,43.46
2023-08-14T03:35:13.484Z,43.43
2023-08-14T03:35:43.470Z,43.43
2023-08-14T03:36:13.588Z,43.45
2023-08-14T03:36:43.707Z,43.40
2023-08-14T03:37:13.760Z,43.42
2023-08-14T03:37:43.883Z,43.42
2023-08-14T03:38:14.022Z,43.36
2023-08-14T03:38:43.997Z,43.43
2023-08-14T03:39:14.116Z,43.38
2023-08-14T03:39:44.245Z,43.40
2023-08-14T03:40:14.231Z,43.39
2023-08-14T03:40:44.345Z,43.44
2023-08-14T03:41:14.464Z,43.40
2023-08-14T03:41:44.593Z,43.40
2023-08-14T03:42:14.666Z,43.42
2023-08-14T03:42:44.781Z,43.36
2023-08-14T03:43:14.779Z,43.39
2023-08-14T03:43:44.892Z,43.40
2023-08-14T03:44:15.085Z,43.37
2023-08-14T03:44:45.062Z,43.36
2023-08-14T03:45:15.176Z,43.38
2023-08-14T03:45:45.287Z,43.36
2023-08-14T03:46:15.457Z,43.40
2023-08-14T03:46:45.486Z,43.37
2023-08-14T03:47:15.487Z,43.40
2023-08-14T03:47:45.656Z,43.40
2023-08-14T03:48:15.621Z,43.56
2023-08-14T03:48:45.748Z,43.55
2023-08-14T03:49:15.862Z,43.55
2023-08-14T03:49:45.882Z,43.55
2023-08-14T03:50:15.998Z,43.54
2023-08-14T03:50:45.994Z,43.54
2023-08-14T03:51:16.102Z,43.58
2023-08-14T03:51:46.216Z,43.58
2023-08-14T03:52:16.577Z,43.56
2023-08-14T03:52:46.240Z,43.62
2023-08-14T03:53:16.315Z,43.63
2023-08-14T03:53:46.463Z,43.57
2023-08-14T03:54:16.420Z,43.60
2023-08-14T03:55:16.446Z,43.57
2023-08-14T03:55:46.529Z,43.52
2023-08-14T03:56:16.592Z,43.55
2023-08-14T03:56:46.668Z,43.52
2023-08-14T03:57:16.811Z,43.50
2023-08-14T03:57:46.867Z,43.52
2023-08-14T03:58:16.971Z,43.52
2023-08-14T03:58:47.047Z,43.53
2023-08-14T03:59:17.125Z,43.46
2023-08-14T03:59:49.578Z,43.46
2023-08-14T04:00:17.311Z,43.52
2023-08-14T04:00:47.389Z,43.49
2023-08-14T04:01:17.469Z,43.43
2023-08-14T04:01:47.620Z,43.45
2023-08-14T04:02:17.976Z,43.45
2023-08-14T04:02:47.818Z,43.45
2023-08-14T04:03:17.868Z,43.46
2023-08-14T04:03:47.988Z,43.46
2023-08-14T04:04:17.968Z,43.41
2023-08-14T04:04:47.976Z,43.46
2023-08-14T04:05:18.093Z,43.42
2023-08-14T04:05:48.198Z,43.48
2023-08-14T04:06:18.341Z,43.46
2023-08-14T04:06:48.408Z,43.42
2023-08-14T04:07:18.439Z,43.44
2023-08-14T04:07:48.565Z,43.43
2023-08-14T04:08:18.556Z,43.48
2023-08-14T04:08:48.665Z,43.45
2023-08-14T04:09:18.776Z,43.45
2023-08-14T04:09:48.898Z,43.42
2023-08-14T04:10:19.008Z,43.43
2023-08-14T04:10:49.111Z,43.51
2023-08-14T04:11:19.226Z,43.48
2023-08-14T04:11:49.330Z,43.50
2023-08-14T04:12:19.738Z,43.58
2023-08-14T04:12:49.538Z,43.52
2023-08-14T04:13:19.651Z,43.50
2023-08-14T04:13:49.772Z,43.52
2023-08-14T04:14:19.875Z,43.46
2023-08-14T04:14:49.990Z,43.53
2023-08-14T04:15:19.993Z,43.53
2023-08-14T04:15:50.098Z,43.82
2023-08-14T04:16:20.212Z,43.82
2023-08-14T04:16:50.398Z,44.02
2023-08-14T04:17:20.369Z,44.01
2023-08-14T04:17:50.496Z,44.19
2023-08-14T04:18:20.622Z,44.27
2023-08-14T04:18:50.677Z,44.51
2023-08-14T04:19:20.673Z,44.64
2023-08-14T04:19:50.782Z,44.55
2023-08-14T04:20:20.895Z,44.50
2023-08-14T04:20:51.016Z,44.45
2023-08-14T04:21:21.120Z,44.45
2023-08-14T04:21:51.261Z,44.33
2023-08-14T04:22:21.517Z,44.37
2023-08-14T04:22:51.323Z,44.30
2023-08-14T04:23:21.435Z,44.26
2023-08-14T04:23:51.541Z,44.22
2023-08-14T04:24:21.661Z,44.21
2023-08-14T04:24:51.783Z,44.14
2023-08-14T04:25:21.890Z,44.10
2023-08-14T04:25:52.005Z,44.02
2023-08-14T04:26:22.121Z,44.27
2023-08-14T04:26:52.238Z,44.18
2023-08-14T04:27:22.230Z,44.14
2023-08-14T04:27:52.466Z,44.08
2023-08-14T04:28:22.450Z,44.22
2023-08-14T04:29:22.542Z,44.06
2023-08-14T04:29:52.633Z,44.13
2023-08-14T04:30:22.593Z,44.15
2023-08-14T04:30:52.728Z,44.13
2023-08-14T04:31:22.760Z,44.06
2023-08-14T04:31:52.850Z,43.97
2023-08-14T04:32:22.870Z,43.94
2023-08-14T04:32:53.016Z,43.95
2023-08-14T04:33:23.010Z,43.93
2023-08-14T04:33:53.132Z,43.88
2023-08-14T04:34:23.247Z,43.91
2023-08-14T04:34:53.360Z,43.93
2023-08-14T04:35:25.798Z,43.85
2023-08-14T04:35:53.490Z,43.91
2023-08-14T04:36:53.561Z,43.93
2023-08-14T04:37:23.590Z,43.90
2023-08-14T04:37:53.700Z,43.84
2023-08-14T04:38:23.812Z,43.87
2023-08-14T04:38:53.808Z,43.82
2023-08-14T04:39:23.930Z,43.80
2023-08-14T04:39:53.927Z,43.82
2023-08-14T04:40:24.053Z,43.84
2023-08-14T04:40:54.037Z,43.78
2023-08-14T04:41:24.150Z,43.86
2023-08-14T04:41:54.259Z,43.86
2023-08-14T04:42:24.368Z,43.87
2023-08-14T04:42:54.626Z,43.87
2023-08-14T04:43:24.609Z,43.82
2023-08-14T04:44:24.658Z,43.84
2023-08-14T04:44:54.777Z,43.78
2023-08-14T04:45:24.772Z,43.84
2023-08-14T04:45:54.897Z,44.00
2023-08-14T04:46:24.932Z,42.85
2023-08-14T04:46:59.990Z,42.12
2023-08-14T04:47:25.048Z,41.74
2023-08-14T04:47:57.390Z,41.44
2023-08-14T04:48:25.243Z,41.48
2023-08-14T04:48:55.349Z,41.48
2023-08-14T04:49:25.476Z,41.77
2023-08-14T04:49:55.486Z,41.89
2023-08-14T04:50:55.541Z,42.37
2023-08-14T04:51:25.648Z,42.53
2023-08-14T04:51:55.760Z,42.77
2023-08-14T04:52:25.868Z,43.03
2023-08-14T04:52:55.965Z,43.43
2023-08-14T04:53:26.039Z,43.76
2023-08-14T04:53:56.133Z,44.08
2023-08-14T04:54:26.219Z,44.40
2023-08-14T04:54:56.294Z,44.84
2023-08-14T04:55:26.381Z,44.96
2023-08-14T04:55:56.450Z,45.13
2023-08-14T04:56:26.520Z,45.40
2023-08-14T04:56:56.606Z,45.67
2023-08-14T04:57:26.670Z,45.93
2023-08-14T04:57:56.779Z,46.17
2023-08-14T04:58:26.837Z,46.29
2023-08-14T04:58:56.924Z,46.67
2023-08-14T04:59:27.016Z,46.79
2023-08-14T04:59:57.087Z,46.99
2023-08-14T05:00:27.215Z,47.24
2023-08-14T05:00:57.180Z,47.44
2023-08-14T05:01:27.259Z,47.53
2023-08-14T05:01:57.385Z,47.65
2023-08-14T05:02:27.504Z,47.87
2023-08-14T05:02:57.492Z,48.01
2023-08-14T05:03:27.472Z,48.26
2023-08-14T05:03:57.581Z,48.23
2023-08-14T05:04:27.748Z,48.32
2023-08-14T05:04:57.805Z,48.41
2023-08-14T05:05:27.804Z,48.46
2023-08-14T05:05:57.927Z,48.61
2023-08-14T05:06:28.035Z,48.72
2023-08-14T05:06:58.148Z,48.79
2023-08-14T05:07:28.269Z,48.73
2023-08-14T05:07:58.405Z,48.74
2023-08-14T05:08:28.409Z,48.76
2023-08-14T05:09:00.439Z,48.79
2023-08-14T05:09:28.488Z,48.79
2023-08-14T05:09:58.614Z,48.91
2023-08-14T05:10:28.733Z,48.96
2023-08-14T05:10:58.819Z,48.89
2023-08-14T05:11:28.945Z,48.90
2023-08-14T05:11:58.935Z,48.83
2023-08-14T05:12:29.071Z,48.97
2023-08-14T05:12:59.312Z,49.19
2023-08-14T05:13:29.149Z,49.20
2023-08-14T05:14:29.293Z,49.41
2023-08-14T05:14:59.309Z,49.52
2023-08-14T05:15:29.298Z,49.65
2023-08-14T05:16:08.207Z,49.80
2023-08-14T05:16:29.479Z,49.73
2023-08-14T05:16:59.464Z,49.84
2023-08-14T05:17:29.603Z,49.95
2023-08-14T05:17:59.644Z,50.21
2023-08-14T05:18:29.622Z,50.33
2023-08-14T05:18:59.737Z,50.43
2023-08-14T05:19:29.855Z,50.45
2023-08-14T05:19:59.967Z,50.51
2023-08-14T05:20:30.086Z,50.63
2023-08-14T05:21:00.214Z,50.61
2023-08-14T05:21:30.312Z,50.56
2023-08-14T05:22:00.439Z,50.63
2023-08-14T05:22:30.428Z,50.57
2023-08-14T05:23:00.547Z,50.49
2023-08-14T05:23:30.654Z,50.53
2023-08-14T05:24:00.770Z,50.48
2023-08-14T05:24:30.905Z,50.49
2023-08-14T05:25:00.939Z,50.36
2023-08-14T05:25:31.080Z,50.45
2023-08-14T05:26:01.086Z,50.62
2023-08-14T05:26:31.440Z,50.43
2023-08-14T05:27:01.304Z,50.51
2023-08-14T05:28:01.378Z,50.38
2023-08-14T05:28:31.593Z,50.39
2023-08-14T05:29:01.642Z,50.36
2023-08-14T05:29:31.640Z,50.39
2023-08-14T05:30:01.747Z,50.37
2023-08-14T05:30:31.863Z,50.23
2023-08-14T05:31:02.001Z,50.11
2023-08-14T05:31:32.124Z,50.20
2023-08-14T05:32:02.189Z,50.21
2023-08-14T05:32:32.331Z,50.20
2023-08-14T05:33:02.370Z,50.17
2023-08-14T05:33:32.338Z,50.21
2023-08-14T05:34:02.457Z,50.25
2023-08-14T05:34:32.453Z,50.21
2023-08-14T05:35:02.461Z,50.24
2023-08-14T05:35:32.464Z,50.19
2023-08-14T05:36:02.465Z,50.13
2023-08-14T05:37:02.530Z,49.96
2023-08-14T05:37:32.635Z,49.93
2023-08-14T05:38:02.762Z,49.75
2023-08-14T05:38:32.863Z,49.66
2023-08-14T05:39:02.875Z,49.52
2023-08-14T05:39:33.018Z,49.33
2023-08-14T05:40:03.008Z,49.11
2023-08-14T05:41:03.102Z,48.61
2023-08-14T05:41:33.085Z,48.63
2023-08-14T05:42:03.204Z,48.57
2023-08-14T05:42:33.316Z,48.49
2023-08-14T05:43:03.437Z,48.34
2023-08-14T05:43:33.539Z,48.37
2023-08-14T05:44:03.677Z,48.16
2023-08-14T05:44:33.762Z,47.97
2023-08-14T05:45:03.898Z,47.90
2023-08-14T05:45:33.921Z,47.81
2023-08-14T05:46:04.029Z,47.80
2023-08-14T05:46:33.934Z,47.66
2023-08-14T05:47:04.046Z,47.57
2023-08-14T05:47:34.187Z,47.48
2023-08-14T05:48:04.348Z,47.49
2023-08-14T05:48:34.369Z,47.36
2023-08-14T05:49:04.480Z,47.29
2023-08-14T05:49:34.598Z,47.22
2023-08-14T05:50:04.708Z,47.20
2023-08-14T05:50:34.823Z,47.18
2023-08-14T05:51:04.823Z,47.21
2023-08-14T05:51:34.928Z,47.22
2023-08-14T05:52:05.037Z,47.22
2023-08-14T05:52:35.188Z,47.17
2023-08-14T05:53:05.183Z,47.20
2023-08-14T05:53:35.175Z,47.17
2023-08-14T05:54:05.277Z,47.18
2023-08-14T05:54:35.369Z,47.11
2023-08-14T05:55:05.447Z,47.04
2023-08-14T05:55:35.548Z,46.94
2023-08-14T05:56:05.625Z,46.87
2023-08-14T05:56:35.699Z,46.87
2023-08-14T05:57:05.788Z,46.90
2023-08-14T05:57:35.949Z,46.90
2023-08-14T05:58:05.911Z,46.86
2023-08-14T05:58:35.993Z,46.75
2023-08-14T05:59:06.113Z,46.72
2023-08-14T05:59:36.591Z,46.64
2023-08-14T06:00:06.165Z,46.57
2023-08-14T06:01:06.336Z,46.35
2023-08-14T06:01:36.311Z,46.26
2023-08-14T06:02:06.421Z,46.13
2023-08-14T06:02:36.510Z,46.03
2023-08-14T06:03:06.606Z,45.90
2023-08-14T06:03:44.237Z,45.77
2023-08-14T06:04:06.630Z,45.57
2023-08-14T06:04:36.709Z,45.57
2023-08-14T06:05:06.702Z,45.44
2023-08-14T06:05:36.707Z,45.36
2023-08-14T06:06:06.819Z,45.21
2023-08-14T06:06:36.950Z,45.18
2023-08-14T06:07:07.002Z,45.10
2023-08-14T06:07:38.138Z,44.95
2023-08-14T06:08:07.175Z,44.89
2023-08-14T06:08:37.289Z,44.78
2023-08-14T06:09:07.340Z,44.72
2023-08-14T06:09:37.330Z,44.63
2023-08-14T06:10:07.533Z,44.54
2023-08-14T06:10:37.489Z,44.47
2023-08-14T06:11:07.607Z,44.43
2023-08-14T06:11:37.762Z,44.31
2023-08-14T06:12:07.750Z,44.30
2023-08-14T06:12:37.962Z,44.21
2023-08-14T06:13:07.964Z,44.14
2023-08-14T06:13:38.073Z,44.04
2023-08-14T06:14:08.070Z,44.07
2023-08-14T06:14:40.324Z,43.98
2023-08-14T06:15:08.211Z,43.93
2023-08-14T06:15:38.316Z,43.90
2023-08-14T06:16:08.452Z,43.86
2023-08-14T06:16:38.487Z,43.80
2023-08-14T06:17:08.527Z,43.78
2023-08-14T06:17:38.529Z,43.77
2023-08-14T06:18:08.595Z,43.67
2023-08-14T06:18:38.671Z,43.66
2023-08-14T06:19:08.662Z,43.59
2023-08-14T06:19:38.827Z,43.59
2023-08-14T06:20:08.855Z,43.51
2023-08-14T06:20:38.891Z,43.50
2023-08-14T06:21:08.888Z,43.52
2023-08-14T06:22:08.997Z,43.42
2023-08-14T06:22:39.018Z,43.48
2023-08-14T06:23:09.075Z,43.37
2023-08-14T06:23:39.048Z,43.43
2023-08-14T06:24:09.179Z,43.38
2023-08-14T06:24:39.235Z,43.37
2023-08-14T06:25:09.235Z,43.36
2023-08-14T06:25:39.324Z,43.37
2023-08-14T06:26:09.308Z,43.36
2023-08-14T06:26:39.467Z,43.35
2023-08-14T06:27:09.494Z,43.24
2023-08-14T06:27:39.516Z,43.28
2023-08-14T06:28:09.522Z,43.26
2023-08-14T06:29:09.668Z,43.25
2023-08-14T06:29:39.652Z,43.22
2023-08-14T06:30:09.845Z,43.21
2023-08-14T06:30:39.773Z,43.14
2023-08-14T06:31:09.942Z,43.17
2023-08-14T06:31:40.028Z,43.14
2023-08-14T06:32:10.042Z,43.12
2023-08-14T06:32:40.260Z,43.08
2023-08-14T06:33:10.202Z,43.08
2023-08-14T06:33:40.230Z,43.07
2023-08-14T06:34:10.222Z,43.05
2023-08-14T06:34:40.290Z,43.04
2023-08-14T06:35:10.318Z,43.04
2023-08-14T06:35:40.305Z,42.99
2023-08-14T06:36:10.421Z,43.06
2023-08-14T06:36:40.553Z,43.00